Airfield :
LOGIN :

Register | Disclaimer

   EN    FR    IT 

 










Legend :    VFR   Marginal VFR   IFR   Intensive IFR   Very Intensive IFR
Visi :
Ceiling :
>= 8 km
>= 3000ft
5 to 8 km
1000 to 3000 ft
1500m to 5 km
500 to 1000 ft
800 to 1500m
200 to 500 ft
< 800m
< 200 ft
Symbols :   Thunderstorms  Fog  Heavy snow  Heavy precipitations  Wind > 20 kt
SIGMETs :     Misc.  Thunderstorms  Icing  Turbulence  Mountain Waves  Volcanic Ashes







- Airport Elevation : 510 ft


LJCE - Cerklje

CURRENT METAR :
  • 191100Z 07005KT 020V100 9999 FEW025 SCT035 BKN090 02/M04 Q1021 RMK BLU

EXPIRED METARs :
  • 191030Z 07007KT 040V100 9999 BKN035 OVC090 02/M04 Q1022 RMK BLU
  • 191000Z 06006KT 020V100 9999 -SN BKN035 OVC090 02/M03 Q1022 RMK BLU
  • 190930Z 08006KT 050V110 9999 OVC045 01/M04 Q1023 RMK BLU
  • 190900Z 08006KT 050V110 9999 OVC045 01/M04 Q1023 RMK BLU
  • 190830Z 08007KT 9999 OVC045 01/M03 Q1023 RMK BLU

TAF TAF LJCE
Valid from the 19 at 09:00 until the 19 at 18:00 UTC


190800Z 1909/1918 08005KT 9999 BKN045
TEMPO 1909/1918 SCT045 BKN100
No reported NOTAMs for that airfield.
1 SIGMET reported for the Ljubljana FIR (LJLA) :
 
Severe turbulence
LJLA SIGMET 3 VALID 191000/191300 LJLJ
LJLA LJUBLJANA FIR SEV TURB FCST SW OF LINE N4610 E01330 - N4530 E01435 SFC/6000FT STNR NC=



MET'MAP, your aeronautical weather chart ! - Copyright ORBIFLY December 2007 - Disclaimer

ORBIFLY MET'MAP TEAM :

Programming & Development : Alexandra Zaïnal
Concept & Development : Baudouin d'Aumeries
Co-Development & Prog : Marc-Olivier Méhu
Technical & hardware support : Manuel Goepfert

Contact : metmap@orbifly.com




SOURCES & CREDITS :

   NOAA